sensor_id;sensor_type;location;lat;lon;timestamp;P1;durP1;ratioP1;P2;durP2;ratioP2
25846;SDS011;13676;50.168;8.568;2023-07-31T00:01:17;4.47;;;1.40;;
25846;SDS011;13676;50.168;8.568;2023-07-31T00:03:43;4.85;;;1.30;;
25846;SDS011;13676;50.168;8.568;2023-07-31T00:06:09;3.55;;;1.30;;
25846;SDS011;13676;50.168;8.568;2023-07-31T00:08:35;2.88;;;1.17;;
25846;SDS011;13676;50.168;8.568;2023-07-31T00:11:00;4.35;;;1.40;;
25846;SDS011;13676;50.168;8.568;2023-07-31T00:13:25;1.58;;;1.00;;
25846;SDS011;13676;50.168;8.568;2023-07-31T00:15:51;5.32;;;1.20;;
25846;SDS011;13676;50.168;8.568;2023-07-31T00:18:16;2.63;;;1.10;;
25846;SDS011;13676;50.168;8.568;2023-07-31T00:20:41;3.08;;;1.35;;
25846;SDS011;13676;50.168;8.568;2023-07-31T00:23:07;3.13;;;1.48;;
25846;SDS011;13676;50.168;8.568;2023-07-31T00:25:32;2.25;;;1.20;;
25846;SDS011;13676;50.168;8.568;2023-07-31T00:27:58;3.75;;;1.67;;
25846;SDS011;13676;50.168;8.568;2023-07-31T00:30:24;2.92;;;1.30;;
25846;SDS011;13676;50.168;8.568;2023-07-31T00:32:50;6.00;;;1.55;;
25846;SDS011;13676;50.168;8.568;2023-07-31T00:35:15;4.80;;;1.33;;
25846;SDS011;13676;50.168;8.568;2023-07-31T00:37:41;4.85;;;1.48;;
25846;SDS011;13676;50.168;8.568;2023-07-31T00:40:06;7.53;;;1.58;;
25846;SDS011;13676;50.168;8.568;2023-07-31T00:42:32;5.80;;;1.63;;
25846;SDS011;13676;50.168;8.568;2023-07-31T00:44:58;9.25;;;1.50;;
25846;SDS011;13676;50.168;8.568;2023-07-31T00:47:23;3.35;;;1.30;;
25846;SDS011;13676;50.168;8.568;2023-07-31T00:49:48;5.97;;;1.50;;
25846;SDS011;13676;50.168;8.568;2023-07-31T00:52:14;3.08;;;1.48;;
25846;SDS011;13676;50.168;8.568;2023-07-31T00:54:39;5.55;;;1.33;;
25846;SDS011;13676;50.168;8.568;2023-07-31T00:57:05;5.63;;;1.40;;
25846;SDS011;13676;50.168;8.568;2023-07-31T00:59:30;3.55;;;1.48;;
25846;SDS011;13676;50.168;8.568;2023-07-31T01:01:55;5.55;;;1.40;;
25846;SDS011;13676;50.168;8.568;2023-07-31T01:04:21;4.20;;;1.70;;
25846;SDS011;13676;50.168;8.568;2023-07-31T01:09:29;4.65;;;1.42;;
25846;SDS011;13676;50.168;8.568;2023-07-31T01:12:03;3.67;;;1.60;;
25846;SDS011;13676;50.168;8.568;2023-07-31T01:14:29;2.53;;;1.02;;
25846;SDS011;13676;50.168;8.568;2023-07-31T01:16:54;3.28;;;1.20;;
25846;SDS011;13676;50.168;8.568;2023-07-31T01:19:22;3.83;;;1.50;;
25846;SDS011;13676;50.168;8.568;2023-07-31T01:28:02;4.13;;;1.52;;
25846;SDS011;13676;50.168;8.568;2023-07-31T01:30:34;6.32;;;1.38;;
25846;SDS011;13676;50.168;8.568;2023-07-31T01:33:03;3.22;;;1.38;;
25846;SDS011;13676;50.168;8.568;2023-07-31T01:35:33;5.32;;;1.90;;
25846;SDS011;13676;50.168;8.568;2023-07-31T01:37:59;4.47;;;1.60;;
25846;SDS011;13676;50.168;8.568;2023-07-31T01:40:25;7.65;;;1.80;;
25846;SDS011;13676;50.168;8.568;2023-07-31T01:42:51;2.80;;;1.38;;
25846;SDS011;13676;50.168;8.568;2023-07-31T01:45:16;3.17;;;1.30;;
25846;SDS011;13676;50.168;8.568;2023-07-31T01:47:43;3.97;;;1.35;;
25846;SDS011;13676;50.168;8.568;2023-07-31T01:50:09;3.87;;;1.53;;
25846;SDS011;13676;50.168;8.568;2023-07-31T01:52:34;3.15;;;1.20;;
25846;SDS011;13676;50.168;8.568;2023-07-31T01:55:00;5.25;;;1.65;;
25846;SDS011;13676;50.168;8.568;2023-07-31T01:57:25;5.22;;;1.73;;
25846;SDS011;13676;50.168;8.568;2023-07-31T01:59:52;3.95;;;1.30;;
25846;SDS011;13676;50.168;8.568;2023-07-31T02:02:18;3.33;;;1.50;;
25846;SDS011;13676;50.168;8.568;2023-07-31T02:04:44;3.97;;;1.50;;
25846;SDS011;13676;50.168;8.568;2023-07-31T02:07:09;5.88;;;1.30;;
25846;SDS011;13676;50.168;8.568;2023-07-31T02:09:35;3.90;;;1.58;;
25846;SDS011;13676;50.168;8.568;2023-07-31T02:12:00;4.65;;;1.92;;
25846;SDS011;13676;50.168;8.568;2023-07-31T02:14:26;3.42;;;1.02;;
25846;SDS011;13676;50.168;8.568;2023-07-31T02:16:52;2.60;;;1.40;;
25846;SDS011;13676;50.168;8.568;2023-07-31T02:19:17;4.53;;;1.42;;
25846;SDS011;13676;50.168;8.568;2023-07-31T02:21:42;2.53;;;1.40;;
25846;SDS011;13676;50.168;8.568;2023-07-31T02:24:08;4.22;;;1.58;;
25846;SDS011;13676;50.168;8.568;2023-07-31T02:26:33;4.05;;;1.80;;
25846;SDS011;13676;50.168;8.568;2023-07-31T02:28:58;3.97;;;1.35;;
25846;SDS011;13676;50.168;8.568;2023-07-31T02:31:24;4.40;;;1.60;;
25846;SDS011;13676;50.168;8.568;2023-07-31T02:33:49;6.95;;;1.50;;
25846;SDS011;13676;50.168;8.568;2023-07-31T02:36:14;3.83;;;1.67;;
25846;SDS011;13676;50.168;8.568;2023-07-31T02:38:40;3.80;;;1.52;;
25846;SDS011;13676;50.168;8.568;2023-07-31T02:41:05;3.08;;;1.50;;
25846;SDS011;13676;50.168;8.568;2023-07-31T02:43:31;2.58;;;1.23;;
25846;SDS011;13676;50.168;8.568;2023-07-31T02:45:56;3.97;;;1.52;;
25846;SDS011;13676;50.168;8.568;2023-07-31T02:48:21;4.60;;;1.65;;
25846;SDS011;13676;50.168;8.568;2023-07-31T02:50:47;7.40;;;1.88;;
25846;SDS011;13676;50.168;8.568;2023-07-31T02:53:13;4.00;;;1.73;;
25846;SDS011;13676;50.168;8.568;2023-07-31T02:55:38;5.88;;;1.63;;
25846;SDS011;13676;50.168;8.568;2023-07-31T02:58:04;3.28;;;1.50;;
25846;SDS011;13676;50.168;8.568;2023-07-31T03:00:29;4.22;;;1.40;;
25846;SDS011;13676;50.168;8.568;2023-07-31T03:02:54;4.47;;;2.08;;
25846;SDS011;13676;50.168;8.568;2023-07-31T03:05:20;5.85;;;1.60;;
25846;SDS011;13676;50.168;8.568;2023-07-31T03:07:45;3.70;;;1.30;;
25846;SDS011;13676;50.168;8.568;2023-07-31T03:10:11;5.80;;;2.15;;
25846;SDS011;13676;50.168;8.568;2023-07-31T03:12:37;5.82;;;1.70;;
25846;SDS011;13676;50.168;8.568;2023-07-31T03:15:02;4.53;;;2.17;;
25846;SDS011;13676;50.168;8.568;2023-07-31T03:17:28;6.18;;;1.80;;
25846;SDS011;13676;50.168;8.568;2023-07-31T03:19:54;7.47;;;2.03;;
25846;SDS011;13676;50.168;8.568;2023-07-31T03:22:20;3.83;;;1.50;;
25846;SDS011;13676;50.168;8.568;2023-07-31T03:24:46;5.00;;;1.48;;
25846;SDS011;13676;50.168;8.568;2023-07-31T03:27:12;6.90;;;2.00;;
25846;SDS011;13676;50.168;8.568;2023-07-31T03:29:37;2.47;;;1.52;;
25846;SDS011;13676;50.168;8.568;2023-07-31T03:32:02;5.25;;;1.77;;
25846;SDS011;13676;50.168;8.568;2023-07-31T03:34:28;3.40;;;1.58;;
25846;SDS011;13676;50.168;8.568;2023-07-31T03:36:54;4.70;;;1.85;;
25846;SDS011;13676;50.168;8.568;2023-07-31T03:39:20;4.55;;;1.90;;
25846;SDS011;13676;50.168;8.568;2023-07-31T03:41:46;4.97;;;1.88;;
25846;SDS011;13676;50.168;8.568;2023-07-31T03:44:11;4.78;;;2.05;;
25846;SDS011;13676;50.168;8.568;2023-07-31T03:46:40;6.10;;;2.58;;
25846;SDS011;13676;50.168;8.568;2023-07-31T03:49:05;7.82;;;2.33;;
25846;SDS011;13676;50.168;8.568;2023-07-31T03:51:30;5.30;;;2.20;;
25846;SDS011;13676;50.168;8.568;2023-07-31T03:53:56;3.75;;;2.03;;
25846;SDS011;13676;50.168;8.568;2023-07-31T03:56:21;2.50;;;1.67;;
25846;SDS011;13676;50.168;8.568;2023-07-31T03:58:47;4.32;;;2.08;;
25846;SDS011;13676;50.168;8.568;2023-07-31T04:01:13;6.28;;;2.28;;
25846;SDS011;13676;50.168;8.568;2023-07-31T04:03:40;3.42;;;2.33;;
25846;SDS011;13676;50.168;8.568;2023-07-31T04:06:05;6.13;;;2.50;;
25846;SDS011;13676;50.168;8.568;2023-07-31T04:08:32;5.75;;;2.20;;
25846;SDS011;13676;50.168;8.568;2023-07-31T04:10:57;5.60;;;2.40;;
25846;SDS011;13676;50.168;8.568;2023-07-31T04:13:22;2.60;;;1.77;;
25846;SDS011;13676;50.168;8.568;2023-07-31T04:15:49;3.08;;;1.83;;
25846;SDS011;13676;50.168;8.568;2023-07-31T04:20:41;7.32;;;2.72;;
25846;SDS011;13676;50.168;8.568;2023-07-31T04:23:06;7.97;;;2.35;;
25846;SDS011;13676;50.168;8.568;2023-07-31T04:25:31;3.83;;;2.30;;
25846;SDS011;13676;50.168;8.568;2023-07-31T04:27:57;6.07;;;2.17;;
25846;SDS011;13676;50.168;8.568;2023-07-31T04:30:22;8.35;;;2.38;;
25846;SDS011;13676;50.168;8.568;2023-07-31T04:32:47;3.20;;;2.05;;
25846;SDS011;13676;50.168;8.568;2023-07-31T04:35:12;6.53;;;2.55;;
25846;SDS011;13676;50.168;8.568;2023-07-31T04:37:38;6.55;;;2.30;;
25846;SDS011;13676;50.168;8.568;2023-07-31T04:40:03;8.00;;;2.78;;
25846;SDS011;13676;50.168;8.568;2023-07-31T04:42:29;4.97;;;2.13;;
25846;SDS011;13676;50.168;8.568;2023-07-31T04:44:55;4.53;;;2.50;;
25846;SDS011;13676;50.168;8.568;2023-07-31T04:47:21;6.72;;;2.58;;
25846;SDS011;13676;50.168;8.568;2023-07-31T04:49:46;6.75;;;2.78;;
25846;SDS011;13676;50.168;8.568;2023-07-31T04:52:11;4.18;;;2.33;;
25846;SDS011;13676;50.168;8.568;2023-07-31T04:54:37;8.90;;;2.53;;
25846;SDS011;13676;50.168;8.568;2023-07-31T04:57:02;6.60;;;2.60;;
25846;SDS011;13676;50.168;8.568;2023-07-31T04:59:27;5.15;;;2.50;;
25846;SDS011;13676;50.168;8.568;2023-07-31T05:01:53;7.50;;;2.92;;
25846;SDS011;13676;50.168;8.568;2023-07-31T05:04:18;9.15;;;2.85;;
25846;SDS011;13676;50.168;8.568;2023-07-31T05:06:44;7.78;;;3.00;;
25846;SDS011;13676;50.168;8.568;2023-07-31T05:09:10;6.82;;;2.80;;
25846;SDS011;13676;50.168;8.568;2023-07-31T05:11:35;6.53;;;2.97;;
25846;SDS011;13676;50.168;8.568;2023-07-31T05:14:00;10.93;;;3.00;;
25846;SDS011;13676;50.168;8.568;2023-07-31T05:16:26;7.45;;;2.63;;
25846;SDS011;13676;50.168;8.568;2023-07-31T05:18:51;8.70;;;2.78;;
25846;SDS011;13676;50.168;8.568;2023-07-31T05:21:17;4.15;;;2.30;;
25846;SDS011;13676;50.168;8.568;2023-07-31T05:23:42;6.45;;;2.42;;
25846;SDS011;13676;50.168;8.568;2023-07-31T05:26:08;6.45;;;2.70;;
25846;SDS011;13676;50.168;8.568;2023-07-31T05:28:36;7.45;;;2.95;;
25846;SDS011;13676;50.168;8.568;2023-07-31T05:31:02;5.78;;;2.83;;
25846;SDS011;13676;50.168;8.568;2023-07-31T05:33:28;10.25;;;2.80;;
25846;SDS011;13676;50.168;8.568;2023-07-31T05:35:54;8.25;;;2.95;;
25846;SDS011;13676;50.168;8.568;2023-07-31T05:38:19;8.30;;;2.78;;
25846;SDS011;13676;50.168;8.568;2023-07-31T05:40:45;6.80;;;2.47;;
25846;SDS011;13676;50.168;8.568;2023-07-31T05:43:10;5.05;;;2.67;;
25846;SDS011;13676;50.168;8.568;2023-07-31T05:45:35;8.35;;;2.67;;
25846;SDS011;13676;50.168;8.568;2023-07-31T05:48:02;9.52;;;2.95;;
25846;SDS011;13676;50.168;8.568;2023-07-31T05:50:27;10.55;;;3.10;;
25846;SDS011;13676;50.168;8.568;2023-07-31T05:52:53;4.05;;;2.70;;
25846;SDS011;13676;50.168;8.568;2023-07-31T05:55:18;6.88;;;2.40;;
25846;SDS011;13676;50.168;8.568;2023-07-31T05:57:43;7.72;;;2.50;;
25846;SDS011;13676;50.168;8.568;2023-07-31T06:00:11;5.47;;;2.40;;
25846;SDS011;13676;50.168;8.568;2023-07-31T06:02:37;8.38;;;2.70;;
25846;SDS011;13676;50.168;8.568;2023-07-31T06:05:03;6.47;;;2.40;;
25846;SDS011;13676;50.168;8.568;2023-07-31T06:07:30;7.43;;;2.65;;
25846;SDS011;13676;50.168;8.568;2023-07-31T06:09:56;6.38;;;2.78;;
25846;SDS011;13676;50.168;8.568;2023-07-31T06:12:26;4.60;;;2.20;;
25846;SDS011;13676;50.168;8.568;2023-07-31T06:14:52;4.45;;;2.20;;
25846;SDS011;13676;50.168;8.568;2023-07-31T06:17:17;6.13;;;2.90;;
25846;SDS011;13676;50.168;8.568;2023-07-31T06:19:43;9.35;;;3.33;;
25846;SDS011;13676;50.168;8.568;2023-07-31T06:22:08;9.82;;;2.90;;
25846;SDS011;13676;50.168;8.568;2023-07-31T06:24:34;5.50;;;2.50;;
25846;SDS011;13676;50.168;8.568;2023-07-31T06:26:59;8.27;;;2.88;;
25846;SDS011;13676;50.168;8.568;2023-07-31T06:29:25;8.73;;;2.67;;
25846;SDS011;13676;50.168;8.568;2023-07-31T06:31:50;7.00;;;2.88;;
25846;SDS011;13676;50.168;8.568;2023-07-31T06:34:15;8.80;;;2.97;;
25846;SDS011;13676;50.168;8.568;2023-07-31T06:36:41;8.23;;;2.75;;
25846;SDS011;13676;50.168;8.568;2023-07-31T06:39:08;6.95;;;2.75;;
25846;SDS011;13676;50.168;8.568;2023-07-31T06:41:34;7.63;;;2.72;;
25846;SDS011;13676;50.168;8.568;2023-07-31T06:43:59;6.07;;;2.80;;
25846;SDS011;13676;50.168;8.568;2023-07-31T06:46:24;5.80;;;2.78;;
25846;SDS011;13676;50.168;8.568;2023-07-31T06:48:49;9.32;;;3.15;;
25846;SDS011;13676;50.168;8.568;2023-07-31T06:51:15;7.45;;;2.90;;
25846;SDS011;13676;50.168;8.568;2023-07-31T06:53:40;7.80;;;3.20;;
25846;SDS011;13676;50.168;8.568;2023-07-31T06:56:06;6.20;;;2.63;;
25846;SDS011;13676;50.168;8.568;2023-07-31T06:58:31;8.30;;;2.95;;
25846;SDS011;13676;50.168;8.568;2023-07-31T07:00:57;6.65;;;2.58;;
25846;SDS011;13676;50.168;8.568;2023-07-31T07:03:22;5.95;;;2.95;;
25846;SDS011;13676;50.168;8.568;2023-07-31T07:05:49;8.60;;;3.03;;
25846;SDS011;13676;50.168;8.568;2023-07-31T07:08:14;10.90;;;3.10;;
25846;SDS011;13676;50.168;8.568;2023-07-31T07:10:44;8.73;;;2.78;;
25846;SDS011;13676;50.168;8.568;2023-07-31T07:13:09;6.47;;;2.85;;
25846;SDS011;13676;50.168;8.568;2023-07-31T07:15:34;5.57;;;2.58;;
25846;SDS011;13676;50.168;8.568;2023-07-31T07:18:00;5.40;;;2.92;;
25846;SDS011;13676;50.168;8.568;2023-07-31T07:20:26;4.82;;;2.10;;
25846;SDS011;13676;50.168;8.568;2023-07-31T07:22:55;7.57;;;2.83;;
25846;SDS011;13676;50.168;8.568;2023-07-31T07:25:22;6.90;;;2.47;;
25846;SDS011;13676;50.168;8.568;2023-07-31T07:27:47;6.23;;;2.37;;
25846;SDS011;13676;50.168;8.568;2023-07-31T07:30:12;5.40;;;2.65;;
25846;SDS011;13676;50.168;8.568;2023-07-31T07:32:39;7.05;;;2.55;;
25846;SDS011;13676;50.168;8.568;2023-07-31T07:35:05;7.78;;;2.83;;
25846;SDS011;13676;50.168;8.568;2023-07-31T07:37:32;5.72;;;2.30;;
25846;SDS011;13676;50.168;8.568;2023-07-31T07:39:59;8.80;;;3.28;;
25846;SDS011;13676;50.168;8.568;2023-07-31T07:42:25;5.72;;;2.63;;
25846;SDS011;13676;50.168;8.568;2023-07-31T07:44:50;6.07;;;2.60;;
25846;SDS011;13676;50.168;8.568;2023-07-31T07:47:15;8.50;;;3.10;;
25846;SDS011;13676;50.168;8.568;2023-07-31T07:49:42;7.03;;;3.03;;
25846;SDS011;13676;50.168;8.568;2023-07-31T07:52:07;7.25;;;2.72;;
25846;SDS011;13676;50.168;8.568;2023-07-31T07:54:33;7.05;;;2.70;;
25846;SDS011;13676;50.168;8.568;2023-07-31T07:56:58;6.68;;;2.47;;
25846;SDS011;13676;50.168;8.568;2023-07-31T07:59:24;7.60;;;2.42;;
25846;SDS011;13676;50.168;8.568;2023-07-31T08:01:50;7.28;;;2.95;;
25846;SDS011;13676;50.168;8.568;2023-07-31T08:04:15;5.68;;;2.75;;
25846;SDS011;13676;50.168;8.568;2023-07-31T08:06:41;7.93;;;2.92;;
25846;SDS011;13676;50.168;8.568;2023-07-31T08:09:07;7.25;;;2.60;;
25846;SDS011;13676;50.168;8.568;2023-07-31T08:11:33;9.95;;;3.00;;
25846;SDS011;13676;50.168;8.568;2023-07-31T08:13:59;5.78;;;2.42;;
25846;SDS011;13676;50.168;8.568;2023-07-31T08:16:25;5.25;;;2.55;;
25846;SDS011;13676;50.168;8.568;2023-07-31T08:18:50;5.18;;;2.75;;
25846;SDS011;13676;50.168;8.568;2023-07-31T08:21:17;6.60;;;2.55;;
25846;SDS011;13676;50.168;8.568;2023-07-31T08:23:42;9.68;;;3.25;;
25846;SDS011;13676;50.168;8.568;2023-07-31T08:26:07;7.22;;;3.53;;
25846;SDS011;13676;50.168;8.568;2023-07-31T08:28:33;10.40;;;3.50;;
25846;SDS011;13676;50.168;8.568;2023-07-31T08:30:58;6.63;;;2.92;;
25846;SDS011;13676;50.168;8.568;2023-07-31T08:33:24;6.97;;;2.90;;
25846;SDS011;13676;50.168;8.568;2023-07-31T08:35:50;6.13;;;3.17;;
25846;SDS011;13676;50.168;8.568;2023-07-31T08:38:15;6.68;;;2.78;;
25846;SDS011;13676;50.168;8.568;2023-07-31T08:40:40;8.43;;;2.80;;
25846;SDS011;13676;50.168;8.568;2023-07-31T08:43:06;9.27;;;3.25;;
25846;SDS011;13676;50.168;8.568;2023-07-31T08:45:32;16.08;;;3.40;;
25846;SDS011;13676;50.168;8.568;2023-07-31T08:47:59;8.00;;;2.80;;
25846;SDS011;13676;50.168;8.568;2023-07-31T08:50:25;8.50;;;3.27;;
25846;SDS011;13676;50.168;8.568;2023-07-31T08:52:52;9.50;;;3.00;;
25846;SDS011;13676;50.168;8.568;2023-07-31T08:55:18;6.07;;;2.70;;
25846;SDS011;13676;50.168;8.568;2023-07-31T08:57:50;6.82;;;2.95;;
25846;SDS011;13676;50.168;8.568;2023-07-31T09:00:16;6.63;;;2.55;;
25846;SDS011;13676;50.168;8.568;2023-07-31T09:02:45;9.25;;;3.13;;
25846;SDS011;13676;50.168;8.568;2023-07-31T09:05:11;5.85;;;2.63;;
25846;SDS011;13676;50.168;8.568;2023-07-31T09:07:38;10.02;;;2.80;;
25846;SDS011;13676;50.168;8.568;2023-07-31T09:10:04;7.55;;;2.58;;
25846;SDS011;13676;50.168;8.568;2023-07-31T09:12:30;7.38;;;3.53;;
25846;SDS011;13676;50.168;8.568;2023-07-31T09:14:56;7.13;;;3.03;;
25846;SDS011;13676;50.168;8.568;2023-07-31T09:17:32;6.63;;;2.70;;
25846;SDS011;13676;50.168;8.568;2023-07-31T09:20:15;9.00;;;3.03;;
25846;SDS011;13676;50.168;8.568;2023-07-31T09:22:41;7.00;;;2.83;;
25846;SDS011;13676;50.168;8.568;2023-07-31T09:27:45;7.28;;;2.50;;
25846;SDS011;13676;50.168;8.568;2023-07-31T09:30:12;8.85;;;2.90;;
25846;SDS011;13676;50.168;8.568;2023-07-31T09:32:37;7.05;;;2.78;;
25846;SDS011;13676;50.168;8.568;2023-07-31T09:35:48;8.02;;;3.17;;
25846;SDS011;13676;50.168;8.568;2023-07-31T09:37:57;8.15;;;2.75;;
25846;SDS011;13676;50.168;8.568;2023-07-31T09:40:27;7.57;;;2.78;;
25846;SDS011;13676;50.168;8.568;2023-07-31T09:43:00;7.63;;;2.40;;
25846;SDS011;13676;50.168;8.568;2023-07-31T09:45:25;6.93;;;2.92;;
25846;SDS011;13676;50.168;8.568;2023-07-31T09:47:51;4.50;;;2.75;;
25846;SDS011;13676;50.168;8.568;2023-07-31T09:50:19;7.30;;;2.88;;
25846;SDS011;13676;50.168;8.568;2023-07-31T09:52:46;5.00;;;2.50;;
25846;SDS011;13676;50.168;8.568;2023-07-31T09:55:11;6.90;;;3.10;;
25846;SDS011;13676;50.168;8.568;2023-07-31T09:57:38;6.22;;;2.85;;
25846;SDS011;13676;50.168;8.568;2023-07-31T10:00:06;10.18;;;3.22;;
25846;SDS011;13676;50.168;8.568;2023-07-31T10:02:34;8.88;;;2.97;;
25846;SDS011;13676;50.168;8.568;2023-07-31T10:05:01;6.90;;;2.97;;
25846;SDS011;13676;50.168;8.568;2023-07-31T10:07:28;6.55;;;2.83;;
25846;SDS011;13676;50.168;8.568;2023-07-31T10:12:21;5.35;;;2.47;;
25846;SDS011;13676;50.168;8.568;2023-07-31T10:14:50;7.47;;;2.50;;
25846;SDS011;13676;50.168;8.568;2023-07-31T10:17:17;7.57;;;2.50;;
25846;SDS011;13676;50.168;8.568;2023-07-31T10:19:43;6.70;;;2.53;;
25846;SDS011;13676;50.168;8.568;2023-07-31T10:22:09;5.20;;;2.30;;
25846;SDS011;13676;50.168;8.568;2023-07-31T10:24:35;5.57;;;2.35;;
25846;SDS011;13676;50.168;8.568;2023-07-31T10:27:01;6.43;;;2.63;;
25846;SDS011;13676;50.168;8.568;2023-07-31T10:29:28;6.93;;;2.80;;
25846;SDS011;13676;50.168;8.568;2023-07-31T10:31:54;5.65;;;2.72;;
25846;SDS011;13676;50.168;8.568;2023-07-31T10:34:21;5.37;;;2.73;;
25846;SDS011;13676;50.168;8.568;2023-07-31T10:36:48;4.18;;;2.67;;
25846;SDS011;13676;50.168;8.568;2023-07-31T10:41:58;7.07;;;2.90;;
25846;SDS011;13676;50.168;8.568;2023-07-31T10:44:24;7.15;;;2.90;;
25846;SDS011;13676;50.168;8.568;2023-07-31T10:46:49;6.00;;;2.80;;
25846;SDS011;13676;50.168;8.568;2023-07-31T10:49:14;6.20;;;2.70;;
25846;SDS011;13676;50.168;8.568;2023-07-31T10:51:46;9.18;;;2.97;;
25846;SDS011;13676;50.168;8.568;2023-07-31T10:54:13;7.78;;;3.15;;
25846;SDS011;13676;50.168;8.568;2023-07-31T10:56:40;6.43;;;2.13;;
25846;SDS011;13676;50.168;8.568;2023-07-31T10:59:05;4.93;;;2.63;;
25846;SDS011;13676;50.168;8.568;2023-07-31T11:01:49;6.63;;;3.03;;
25846;SDS011;13676;50.168;8.568;2023-07-31T11:04:15;8.20;;;3.17;;
25846;SDS011;13676;50.168;8.568;2023-07-31T11:06:57;7.50;;;3.33;;
25846;SDS011;13676;50.168;8.568;2023-07-31T11:09:30;5.60;;;3.10;;
25846;SDS011;13676;50.168;8.568;2023-07-31T11:11:56;9.18;;;2.85;;
25846;SDS011;13676;50.168;8.568;2023-07-31T11:14:22;4.75;;;2.70;;
25846;SDS011;13676;50.168;8.568;2023-07-31T11:16:51;5.35;;;2.85;;
25846;SDS011;13676;50.168;8.568;2023-07-31T11:19:22;4.60;;;2.42;;
25846;SDS011;13676;50.168;8.568;2023-07-31T11:21:49;6.25;;;2.70;;
25846;SDS011;13676;50.168;8.568;2023-07-31T11:24:14;4.35;;;2.55;;
25846;SDS011;13676;50.168;8.568;2023-07-31T11:26:48;5.97;;;2.50;;
25846;SDS011;13676;50.168;8.568;2023-07-31T11:29:16;8.25;;;2.80;;
25846;SDS011;13676;50.168;8.568;2023-07-31T11:31:45;6.28;;;2.83;;
25846;SDS011;13676;50.168;8.568;2023-07-31T11:34:11;5.22;;;2.60;;
25846;SDS011;13676;50.168;8.568;2023-07-31T11:36:37;5.85;;;2.47;;
25846;SDS011;13676;50.168;8.568;2023-07-31T11:39:09;9.75;;;3.10;;
25846;SDS011;13676;50.168;8.568;2023-07-31T11:41:35;4.78;;;2.22;;
25846;SDS011;13676;50.168;8.568;2023-07-31T11:44:01;5.03;;;2.75;;
25846;SDS011;13676;50.168;8.568;2023-07-31T11:46:27;6.47;;;2.88;;
25846;SDS011;13676;50.168;8.568;2023-07-31T11:48:58;6.47;;;2.83;;
25846;SDS011;13676;50.168;8.568;2023-07-31T11:51:24;6.55;;;2.70;;
25846;SDS011;13676;50.168;8.568;2023-07-31T11:53:54;5.88;;;2.67;;
25846;SDS011;13676;50.168;8.568;2023-07-31T11:56:21;6.25;;;2.70;;
25846;SDS011;13676;50.168;8.568;2023-07-31T11:58:58;7.47;;;2.90;;
25846;SDS011;13676;50.168;8.568;2023-07-31T12:01:24;5.35;;;2.58;;
25846;SDS011;13676;50.168;8.568;2023-07-31T12:03:52;8.48;;;2.60;;
25846;SDS011;13676;50.168;8.568;2023-07-31T12:06:18;6.85;;;2.88;;
25846;SDS011;13676;50.168;8.568;2023-07-31T12:08:45;4.15;;;2.47;;
25846;SDS011;13676;50.168;8.568;2023-07-31T12:11:12;6.63;;;2.80;;
25846;SDS011;13676;50.168;8.568;2023-07-31T12:13:43;3.85;;;2.30;;
25846;SDS011;13676;50.168;8.568;2023-07-31T12:16:09;4.88;;;2.80;;
25846;SDS011;13676;50.168;8.568;2023-07-31T12:18:35;7.75;;;2.55;;
25846;SDS011;13676;50.168;8.568;2023-07-31T12:21:02;5.28;;;2.95;;
25846;SDS011;13676;50.168;8.568;2023-07-31T12:23:31;7.20;;;2.95;;
25846;SDS011;13676;50.168;8.568;2023-07-31T12:28:27;5.22;;;2.67;;
25846;SDS011;13676;50.168;8.568;2023-07-31T12:30:56;6.53;;;2.75;;
25846;SDS011;13676;50.168;8.568;2023-07-31T12:33:24;7.35;;;3.05;;
25846;SDS011;13676;50.168;8.568;2023-07-31T12:35:55;6.50;;;2.75;;
25846;SDS011;13676;50.168;8.568;2023-07-31T12:38:20;4.22;;;2.42;;
25846;SDS011;13676;50.168;8.568;2023-07-31T12:40:45;4.80;;;2.80;;
25846;SDS011;13676;50.168;8.568;2023-07-31T12:43:11;5.65;;;3.35;;
25846;SDS011;13676;50.168;8.568;2023-07-31T12:45:36;7.78;;;2.65;;
25846;SDS011;13676;50.168;8.568;2023-07-31T12:48:02;4.95;;;2.83;;
25846;SDS011;13676;50.168;8.568;2023-07-31T12:50:27;5.25;;;2.55;;
25846;SDS011;13676;50.168;8.568;2023-07-31T12:52:53;6.15;;;2.72;;
25846;SDS011;13676;50.168;8.568;2023-07-31T12:55:18;6.85;;;3.00;;
25846;SDS011;13676;50.168;8.568;2023-07-31T12:57:44;6.20;;;2.70;;
25846;SDS011;13676;50.168;8.568;2023-07-31T13:00:10;7.43;;;2.50;;
25846;SDS011;13676;50.168;8.568;2023-07-31T13:02:36;5.17;;;2.63;;
25846;SDS011;13676;50.168;8.568;2023-07-31T13:05:01;5.10;;;2.40;;
25846;SDS011;13676;50.168;8.568;2023-07-31T13:07:27;5.43;;;2.75;;
25846;SDS011;13676;50.168;8.568;2023-07-31T13:09:53;5.38;;;3.13;;
25846;SDS011;13676;50.168;8.568;2023-07-31T13:12:18;4.72;;;2.45;;
25846;SDS011;13676;50.168;8.568;2023-07-31T13:14:43;5.65;;;2.63;;
25846;SDS011;13676;50.168;8.568;2023-07-31T13:17:09;5.72;;;2.50;;
25846;SDS011;13676;50.168;8.568;2023-07-31T13:19:34;6.05;;;2.42;;
25846;SDS011;13676;50.168;8.568;2023-07-31T13:21:59;3.95;;;2.20;;
25846;SDS011;13676;50.168;8.568;2023-07-31T13:24:25;6.85;;;3.00;;
25846;SDS011;13676;50.168;8.568;2023-07-31T13:26:51;7.53;;;2.80;;
25846;SDS011;13676;50.168;8.568;2023-07-31T13:29:19;8.32;;;2.45;;
25846;SDS011;13676;50.168;8.568;2023-07-31T13:31:44;4.38;;;2.70;;
25846;SDS011;13676;50.168;8.568;2023-07-31T13:34:09;4.32;;;2.65;;
25846;SDS011;13676;50.168;8.568;2023-07-31T13:36:34;4.25;;;2.28;;
25846;SDS011;13676;50.168;8.568;2023-07-31T13:39:01;6.00;;;2.90;;
25846;SDS011;13676;50.168;8.568;2023-07-31T13:41:27;4.75;;;2.60;;
25846;SDS011;13676;50.168;8.568;2023-07-31T13:43:52;9.38;;;2.42;;
25846;SDS011;13676;50.168;8.568;2023-07-31T13:46:18;6.65;;;2.50;;
25846;SDS011;13676;50.168;8.568;2023-07-31T13:48:43;3.40;;;2.03;;
25846;SDS011;13676;50.168;8.568;2023-07-31T13:51:08;5.38;;;1.90;;
25846;SDS011;13676;50.168;8.568;2023-07-31T13:53:34;4.25;;;2.20;;
25846;SDS011;13676;50.168;8.568;2023-07-31T13:55:59;4.03;;;1.90;;
25846;SDS011;13676;50.168;8.568;2023-07-31T13:58:24;5.00;;;1.95;;
25846;SDS011;13676;50.168;8.568;2023-07-31T14:00:50;4.82;;;2.15;;
25846;SDS011;13676;50.168;8.568;2023-07-31T14:03:16;7.40;;;2.20;;
25846;SDS011;13676;50.168;8.568;2023-07-31T14:05:41;3.50;;;2.00;;
25846;SDS011;13676;50.168;8.568;2023-07-31T14:08:07;5.03;;;2.17;;
25846;SDS011;13676;50.168;8.568;2023-07-31T14:10:32;4.28;;;2.22;;
25846;SDS011;13676;50.168;8.568;2023-07-31T14:12:59;3.75;;;2.13;;
25846;SDS011;13676;50.168;8.568;2023-07-31T14:15:24;2.72;;;1.80;;
25846;SDS011;13676;50.168;8.568;2023-07-31T14:17:50;3.90;;;2.10;;
25846;SDS011;13676;50.168;8.568;2023-07-31T14:20:15;2.40;;;1.80;;
25846;SDS011;13676;50.168;8.568;2023-07-31T14:22:40;4.45;;;2.10;;
25846;SDS011;13676;50.168;8.568;2023-07-31T14:25:06;3.60;;;1.70;;
25846;SDS011;13676;50.168;8.568;2023-07-31T14:27:32;1.85;;;1.45;;
25846;SDS011;13676;50.168;8.568;2023-07-31T14:29:58;3.38;;;1.83;;
25846;SDS011;13676;50.168;8.568;2023-07-31T14:32:23;3.15;;;2.10;;
25846;SDS011;13676;50.168;8.568;2023-07-31T14:34:50;7.28;;;2.42;;
25846;SDS011;13676;50.168;8.568;2023-07-31T14:37:16;2.63;;;1.77;;
25846;SDS011;13676;50.168;8.568;2023-07-31T14:39:41;3.92;;;2.30;;
25846;SDS011;13676;50.168;8.568;2023-07-31T14:42:07;7.25;;;2.63;;
25846;SDS011;13676;50.168;8.568;2023-07-31T14:44:32;4.40;;;2.10;;
25846;SDS011;13676;50.168;8.568;2023-07-31T14:46:58;6.03;;;2.60;;
25846;SDS011;13676;50.168;8.568;2023-07-31T14:49:23;6.25;;;2.97;;
25846;SDS011;13676;50.168;8.568;2023-07-31T14:51:51;4.18;;;2.25;;
25846;SDS011;13676;50.168;8.568;2023-07-31T14:54:16;4.90;;;2.38;;
25846;SDS011;13676;50.168;8.568;2023-07-31T14:56:41;8.32;;;2.75;;
25846;SDS011;13676;50.168;8.568;2023-07-31T14:59:08;5.25;;;2.58;;
25846;SDS011;13676;50.168;8.568;2023-07-31T15:01:36;6.55;;;2.50;;
25846;SDS011;13676;50.168;8.568;2023-07-31T15:04:04;10.73;;;2.60;;